sensor_id;sensor_type;location;lat;lon;timestamp;P1;durP1;ratioP1;P2;durP2;ratioP2
12076;SDS011;12420;42.676;23.262;2024-01-11T00:00:56;28.00;;;16.13;;
12076;SDS011;12420;42.676;23.262;2024-01-11T00:03:25;31.80;;;15.83;;
12076;SDS011;12420;42.676;23.262;2024-01-11T00:05:52;31.13;;;15.83;;
12076;SDS011;12420;42.676;23.262;2024-01-11T00:08:19;28.47;;;15.73;;
12076;SDS011;12420;42.676;23.262;2024-01-11T00:10:46;27.97;;;15.60;;
12076;SDS011;12420;42.676;23.262;2024-01-11T00:13:13;30.87;;;16.33;;
12076;SDS011;12420;42.676;23.262;2024-01-11T00:15:39;32.97;;;17.30;;
12076;SDS011;12420;42.676;23.262;2024-01-11T00:18:06;31.57;;;17.30;;
12076;SDS011;12420;42.676;23.262;2024-01-11T00:20:34;29.47;;;16.40;;
12076;SDS011;12420;42.676;23.262;2024-01-11T00:23:01;32.43;;;17.40;;
12076;SDS011;12420;42.676;23.262;2024-01-11T00:25:28;31.60;;;16.97;;
12076;SDS011;12420;42.676;23.262;2024-01-11T00:27:55;33.60;;;17.70;;
12076;SDS011;12420;42.676;23.262;2024-01-11T00:30:22;27.03;;;15.27;;
12076;SDS011;12420;42.676;23.262;2024-01-11T00:32:48;24.47;;;14.43;;
12076;SDS011;12420;42.676;23.262;2024-01-11T00:35:15;26.07;;;14.77;;
12076;SDS011;12420;42.676;23.262;2024-01-11T00:37:43;23.97;;;13.10;;
12076;SDS011;12420;42.676;23.262;2024-01-11T00:40:10;23.00;;;12.90;;
12076;SDS011;12420;42.676;23.262;2024-01-11T00:42:37;23.37;;;13.60;;
12076;SDS011;12420;42.676;23.262;2024-01-11T00:45:04;23.83;;;13.80;;
12076;SDS011;12420;42.676;23.262;2024-01-11T00:47:31;25.13;;;14.63;;
12076;SDS011;12420;42.676;23.262;2024-01-11T00:49:58;29.83;;;15.13;;
12076;SDS011;12420;42.676;23.262;2024-01-11T00:52:24;32.03;;;17.30;;
12076;SDS011;12420;42.676;23.262;2024-01-11T00:54:53;34.87;;;16.67;;
12076;SDS011;12420;42.676;23.262;2024-01-11T00:57:19;28.20;;;14.97;;
12076;SDS011;12420;42.676;23.262;2024-01-11T00:59:45;33.10;;;15.17;;
12076;SDS011;12420;42.676;23.262;2024-01-11T01:02:12;25.80;;;14.57;;
12076;SDS011;12420;42.676;23.262;2024-01-11T01:04:38;27.70;;;14.90;;
12076;SDS011;12420;42.676;23.262;2024-01-11T01:07:05;27.73;;;14.47;;
12076;SDS011;12420;42.676;23.262;2024-01-11T01:09:32;23.33;;;13.07;;
12076;SDS011;12420;42.676;23.262;2024-01-11T01:12:00;23.07;;;13.73;;
12076;SDS011;12420;42.676;23.262;2024-01-11T01:14:26;24.17;;;13.47;;
12076;SDS011;12420;42.676;23.262;2024-01-11T01:16:53;21.60;;;12.70;;
12076;SDS011;12420;42.676;23.262;2024-01-11T01:19:20;24.47;;;13.20;;
12076;SDS011;12420;42.676;23.262;2024-01-11T01:21:46;19.43;;;11.80;;
12076;SDS011;12420;42.676;23.262;2024-01-11T01:24:13;24.17;;;13.03;;
12076;SDS011;12420;42.676;23.262;2024-01-11T01:26:40;21.97;;;12.13;;
12076;SDS011;12420;42.676;23.262;2024-01-11T01:29:08;19.87;;;12.30;;
12076;SDS011;12420;42.676;23.262;2024-01-11T01:31:34;25.97;;;12.93;;
12076;SDS011;12420;42.676;23.262;2024-01-11T01:34:02;20.77;;;12.67;;
12076;SDS011;12420;42.676;23.262;2024-01-11T01:36:29;19.63;;;11.73;;
12076;SDS011;12420;42.676;23.262;2024-01-11T01:38:56;22.17;;;12.00;;
12076;SDS011;12420;42.676;23.262;2024-01-11T01:41:23;19.60;;;11.57;;
12076;SDS011;12420;42.676;23.262;2024-01-11T01:43:50;21.17;;;11.87;;
12076;SDS011;12420;42.676;23.262;2024-01-11T01:46:19;22.90;;;12.77;;
12076;SDS011;12420;42.676;23.262;2024-01-11T01:48:49;20.27;;;11.80;;
12076;SDS011;12420;42.676;23.262;2024-01-11T01:51:16;20.07;;;11.50;;
12076;SDS011;12420;42.676;23.262;2024-01-11T01:53:43;21.87;;;12.47;;
12076;SDS011;12420;42.676;23.262;2024-01-11T01:56:10;21.33;;;12.33;;
12076;SDS011;12420;42.676;23.262;2024-01-11T01:58:37;21.27;;;12.07;;
12076;SDS011;12420;42.676;23.262;2024-01-11T02:01:04;20.60;;;12.70;;
12076;SDS011;12420;42.676;23.262;2024-01-11T02:03:33;19.30;;;11.83;;
12076;SDS011;12420;42.676;23.262;2024-01-11T02:06:02;20.90;;;12.60;;
12076;SDS011;12420;42.676;23.262;2024-01-11T02:08:31;20.83;;;11.43;;
12076;SDS011;12420;42.676;23.262;2024-01-11T02:10:59;20.67;;;11.77;;
12076;SDS011;12420;42.676;23.262;2024-01-11T02:13:25;23.63;;;11.90;;
12076;SDS011;12420;42.676;23.262;2024-01-11T02:15:53;21.13;;;11.53;;
12076;SDS011;12420;42.676;23.262;2024-01-11T02:18:19;17.87;;;11.07;;
12076;SDS011;12420;42.676;23.262;2024-01-11T02:20:47;19.17;;;10.87;;
12076;SDS011;12420;42.676;23.262;2024-01-11T02:23:15;18.57;;;11.57;;
12076;SDS011;12420;42.676;23.262;2024-01-11T02:25:46;22.70;;;11.70;;
12076;SDS011;12420;42.676;23.262;2024-01-11T02:28:13;17.47;;;11.07;;
12076;SDS011;12420;42.676;23.262;2024-01-11T02:30:40;21.17;;;11.47;;
12076;SDS011;12420;42.676;23.262;2024-01-11T02:33:07;20.50;;;10.73;;
12076;SDS011;12420;42.676;23.262;2024-01-11T02:35:35;20.00;;;11.40;;
12076;SDS011;12420;42.676;23.262;2024-01-11T02:38:03;20.07;;;11.30;;
12076;SDS011;12420;42.676;23.262;2024-01-11T02:40:31;20.87;;;11.23;;
12076;SDS011;12420;42.676;23.262;2024-01-11T02:43:08;20.93;;;12.00;;
12076;SDS011;12420;42.676;23.262;2024-01-11T02:45:34;18.63;;;11.40;;
12076;SDS011;12420;42.676;23.262;2024-01-11T02:48:01;22.53;;;11.63;;
12076;SDS011;12420;42.676;23.262;2024-01-11T02:50:27;19.57;;;11.13;;
12076;SDS011;12420;42.676;23.262;2024-01-11T02:52:54;20.47;;;11.87;;
12076;SDS011;12420;42.676;23.262;2024-01-11T02:55:21;25.53;;;12.20;;
12076;SDS011;12420;42.676;23.262;2024-01-11T02:57:47;22.87;;;12.63;;
12076;SDS011;12420;42.676;23.262;2024-01-11T03:00:16;21.47;;;12.23;;
12076;SDS011;12420;42.676;23.262;2024-01-11T03:02:42;22.67;;;12.77;;
12076;SDS011;12420;42.676;23.262;2024-01-11T03:05:09;23.53;;;12.67;;
12076;SDS011;12420;42.676;23.262;2024-01-11T03:07:36;23.13;;;13.80;;
12076;SDS011;12420;42.676;23.262;2024-01-11T03:10:03;32.73;;;16.40;;
12076;SDS011;12420;42.676;23.262;2024-01-11T03:12:30;25.23;;;14.67;;
12076;SDS011;12420;42.676;23.262;2024-01-11T03:14:57;23.87;;;13.50;;
12076;SDS011;12420;42.676;23.262;2024-01-11T03:17:25;28.20;;;15.80;;
12076;SDS011;12420;42.676;23.262;2024-01-11T03:19:52;24.83;;;14.77;;
12076;SDS011;12420;42.676;23.262;2024-01-11T03:22:18;24.13;;;14.40;;
12076;SDS011;12420;42.676;23.262;2024-01-11T03:24:45;26.37;;;15.77;;
12076;SDS011;12420;42.676;23.262;2024-01-11T03:27:12;37.80;;;21.13;;
12076;SDS011;12420;42.676;23.262;2024-01-11T03:29:38;37.63;;;21.60;;
12076;SDS011;12420;42.676;23.262;2024-01-11T03:32:06;38.47;;;21.23;;
12076;SDS011;12420;42.676;23.262;2024-01-11T03:34:34;35.17;;;18.70;;
12076;SDS011;12420;42.676;23.262;2024-01-11T03:37:00;35.73;;;19.60;;
12076;SDS011;12420;42.676;23.262;2024-01-11T03:39:27;38.17;;;21.50;;
12076;SDS011;12420;42.676;23.262;2024-01-11T03:41:54;36.77;;;21.60;;
12076;SDS011;12420;42.676;23.262;2024-01-11T03:44:20;33.47;;;18.20;;
12076;SDS011;12420;42.676;23.262;2024-01-11T03:46:48;29.83;;;16.90;;
12076;SDS011;12420;42.676;23.262;2024-01-11T03:49:15;31.40;;;18.77;;
12076;SDS011;12420;42.676;23.262;2024-01-11T03:51:43;36.97;;;18.33;;
12076;SDS011;12420;42.676;23.262;2024-01-11T03:54:10;32.70;;;18.37;;
12076;SDS011;12420;42.676;23.262;2024-01-11T03:56:37;34.37;;;19.50;;
12076;SDS011;12420;42.676;23.262;2024-01-11T03:59:05;37.60;;;20.27;;
12076;SDS011;12420;42.676;23.262;2024-01-11T04:01:32;34.93;;;18.87;;
12076;SDS011;12420;42.676;23.262;2024-01-11T04:04:00;37.60;;;18.80;;
12076;SDS011;12420;42.676;23.262;2024-01-11T04:06:26;30.47;;;17.67;;
12076;SDS011;12420;42.676;23.262;2024-01-11T04:08:54;28.50;;;17.07;;
12076;SDS011;12420;42.676;23.262;2024-01-11T04:11:21;30.87;;;17.40;;
12076;SDS011;12420;42.676;23.262;2024-01-11T04:13:48;31.17;;;17.57;;
12076;SDS011;12420;42.676;23.262;2024-01-11T04:16:15;32.70;;;18.87;;
12076;SDS011;12420;42.676;23.262;2024-01-11T04:18:41;33.10;;;18.37;;
12076;SDS011;12420;42.676;23.262;2024-01-11T04:21:19;32.40;;;18.17;;
12076;SDS011;12420;42.676;23.262;2024-01-11T04:23:46;35.17;;;19.33;;
12076;SDS011;12420;42.676;23.262;2024-01-11T04:26:14;30.80;;;18.30;;
12076;SDS011;12420;42.676;23.262;2024-01-11T04:28:41;30.23;;;17.33;;
12076;SDS011;12420;42.676;23.262;2024-01-11T04:31:08;30.40;;;17.40;;
12076;SDS011;12420;42.676;23.262;2024-01-11T04:33:35;31.77;;;17.63;;
12076;SDS011;12420;42.676;23.262;2024-01-11T04:36:05;30.90;;;17.20;;
12076;SDS011;12420;42.676;23.262;2024-01-11T04:38:32;32.40;;;18.00;;
12076;SDS011;12420;42.676;23.262;2024-01-11T04:40:58;30.40;;;18.07;;
12076;SDS011;12420;42.676;23.262;2024-01-11T04:43:26;33.87;;;18.03;;
12076;SDS011;12420;42.676;23.262;2024-01-11T04:45:53;27.30;;;16.23;;
12076;SDS011;12420;42.676;23.262;2024-01-11T04:48:19;32.37;;;17.73;;
12076;SDS011;12420;42.676;23.262;2024-01-11T04:50:46;29.73;;;18.17;;
12076;SDS011;12420;42.676;23.262;2024-01-11T04:53:13;31.50;;;17.67;;
12076;SDS011;12420;42.676;23.262;2024-01-11T04:55:39;30.90;;;18.23;;
12076;SDS011;12420;42.676;23.262;2024-01-11T04:58:06;43.30;;;22.87;;
12076;SDS011;12420;42.676;23.262;2024-01-11T05:00:34;51.60;;;26.77;;
12076;SDS011;12420;42.676;23.262;2024-01-11T05:03:01;40.90;;;22.53;;
12076;SDS011;12420;42.676;23.262;2024-01-11T05:05:28;40.50;;;23.10;;
12076;SDS011;12420;42.676;23.262;2024-01-11T05:07:54;40.87;;;22.33;;
12076;SDS011;12420;42.676;23.262;2024-01-11T05:10:21;41.83;;;22.07;;
12076;SDS011;12420;42.676;23.262;2024-01-11T05:12:48;44.60;;;23.20;;
12076;SDS011;12420;42.676;23.262;2024-01-11T05:15:15;41.23;;;22.97;;
12076;SDS011;12420;42.676;23.262;2024-01-11T05:17:43;41.43;;;22.67;;
12076;SDS011;12420;42.676;23.262;2024-01-11T05:20:09;36.73;;;20.80;;
12076;SDS011;12420;42.676;23.262;2024-01-11T05:22:37;32.97;;;19.33;;
12076;SDS011;12420;42.676;23.262;2024-01-11T05:25:04;34.30;;;18.97;;
12076;SDS011;12420;42.676;23.262;2024-01-11T05:27:31;37.40;;;19.50;;
12076;SDS011;12420;42.676;23.262;2024-01-11T05:29:57;35.17;;;20.03;;
12076;SDS011;12420;42.676;23.262;2024-01-11T05:32:24;39.23;;;20.03;;
12076;SDS011;12420;42.676;23.262;2024-01-11T05:34:52;38.80;;;21.13;;
12076;SDS011;12420;42.676;23.262;2024-01-11T05:37:19;38.83;;;22.67;;
12076;SDS011;12420;42.676;23.262;2024-01-11T05:39:46;34.10;;;20.80;;
12076;SDS011;12420;42.676;23.262;2024-01-11T05:42:12;36.43;;;21.60;;
12076;SDS011;12420;42.676;23.262;2024-01-11T05:44:39;36.27;;;21.13;;
12076;SDS011;12420;42.676;23.262;2024-01-11T05:47:07;39.80;;;21.73;;
12076;SDS011;12420;42.676;23.262;2024-01-11T05:49:33;43.47;;;21.60;;
12076;SDS011;12420;42.676;23.262;2024-01-11T05:52:02;34.63;;;20.20;;
12076;SDS011;12420;42.676;23.262;2024-01-11T05:54:29;38.57;;;22.30;;
12076;SDS011;12420;42.676;23.262;2024-01-11T05:56:55;41.50;;;23.40;;
12076;SDS011;12420;42.676;23.262;2024-01-11T05:59:24;42.40;;;24.47;;
12076;SDS011;12420;42.676;23.262;2024-01-11T06:01:51;43.47;;;22.87;;
12076;SDS011;12420;42.676;23.262;2024-01-11T06:04:17;37.83;;;22.03;;
12076;SDS011;12420;42.676;23.262;2024-01-11T06:06:44;40.63;;;23.30;;
12076;SDS011;12420;42.676;23.262;2024-01-11T06:09:12;36.13;;;22.07;;
12076;SDS011;12420;42.676;23.262;2024-01-11T06:11:39;37.83;;;21.83;;
12076;SDS011;12420;42.676;23.262;2024-01-11T06:14:06;36.27;;;20.57;;
12076;SDS011;12420;42.676;23.262;2024-01-11T06:16:33;33.13;;;20.37;;
12076;SDS011;12420;42.676;23.262;2024-01-11T06:19:00;38.00;;;22.47;;
12076;SDS011;12420;42.676;23.262;2024-01-11T06:21:26;43.57;;;24.23;;
12076;SDS011;12420;42.676;23.262;2024-01-11T06:23:53;45.10;;;25.60;;
12076;SDS011;12420;42.676;23.262;2024-01-11T06:26:21;46.03;;;24.90;;
12076;SDS011;12420;42.676;23.262;2024-01-11T06:28:48;39.57;;;22.87;;
12076;SDS011;12420;42.676;23.262;2024-01-11T06:31:15;40.87;;;23.37;;
12076;SDS011;12420;42.676;23.262;2024-01-11T06:33:43;47.23;;;26.17;;
12076;SDS011;12420;42.676;23.262;2024-01-11T06:36:09;45.63;;;25.97;;
12076;SDS011;12420;42.676;23.262;2024-01-11T06:38:36;56.23;;;28.20;;
12076;SDS011;12420;42.676;23.262;2024-01-11T06:41:03;56.57;;;30.57;;
12076;SDS011;12420;42.676;23.262;2024-01-11T06:43:31;59.70;;;33.27;;
12076;SDS011;12420;42.676;23.262;2024-01-11T06:46:01;64.43;;;34.40;;
12076;SDS011;12420;42.676;23.262;2024-01-11T06:48:29;66.23;;;34.63;;
12076;SDS011;12420;42.676;23.262;2024-01-11T06:50:55;53.93;;;28.20;;
12076;SDS011;12420;42.676;23.262;2024-01-11T06:53:22;55.53;;;29.63;;
12076;SDS011;12420;42.676;23.262;2024-01-11T06:55:49;54.57;;;29.43;;
12076;SDS011;12420;42.676;23.262;2024-01-11T06:58:17;44.80;;;25.77;;
12076;SDS011;12420;42.676;23.262;2024-01-11T07:00:47;36.67;;;21.47;;
12076;SDS011;12420;42.676;23.262;2024-01-11T07:03:14;39.70;;;21.23;;
12076;SDS011;12420;42.676;23.262;2024-01-11T07:05:41;38.03;;;20.97;;
12076;SDS011;12420;42.676;23.262;2024-01-11T07:08:08;32.20;;;18.10;;
12076;SDS011;12420;42.676;23.262;2024-01-11T07:10:34;27.13;;;16.20;;
12076;SDS011;12420;42.676;23.262;2024-01-11T07:13:02;34.60;;;17.77;;
12076;SDS011;12420;42.676;23.262;2024-01-11T07:15:29;34.13;;;16.70;;
12076;SDS011;12420;42.676;23.262;2024-01-11T07:17:58;31.07;;;17.87;;
12076;SDS011;12420;42.676;23.262;2024-01-11T07:20:24;40.40;;;18.60;;
12076;SDS011;12420;42.676;23.262;2024-01-11T07:22:51;29.70;;;17.40;;
12076;SDS011;12420;42.676;23.262;2024-01-11T07:25:18;28.00;;;17.53;;
12076;SDS011;12420;42.676;23.262;2024-01-11T07:27:44;32.53;;;17.67;;
12076;SDS011;12420;42.676;23.262;2024-01-11T07:30:11;32.00;;;17.10;;
12076;SDS011;12420;42.676;23.262;2024-01-11T07:32:38;26.93;;;14.73;;
12076;SDS011;12420;42.676;23.262;2024-01-11T07:35:07;24.30;;;15.23;;
12076;SDS011;12420;42.676;23.262;2024-01-11T07:37:35;26.53;;;16.53;;
12076;SDS011;12420;42.676;23.262;2024-01-11T07:40:02;35.77;;;20.70;;
12076;SDS011;12420;42.676;23.262;2024-01-11T07:42:30;38.60;;;22.23;;
12076;SDS011;12420;42.676;23.262;2024-01-11T07:44:57;38.47;;;21.17;;
12076;SDS011;12420;42.676;23.262;2024-01-11T07:47:24;36.97;;;20.67;;
12076;SDS011;12420;42.676;23.262;2024-01-11T07:49:53;35.23;;;20.03;;
12076;SDS011;12420;42.676;23.262;2024-01-11T07:52:21;32.73;;;18.63;;
12076;SDS011;12420;42.676;23.262;2024-01-11T07:54:47;29.97;;;18.23;;
12076;SDS011;12420;42.676;23.262;2024-01-11T07:57:14;30.57;;;17.87;;
12076;SDS011;12420;42.676;23.262;2024-01-11T07:59:41;33.67;;;17.87;;
12076;SDS011;12420;42.676;23.262;2024-01-11T08:02:07;29.27;;;17.23;;
12076;SDS011;12420;42.676;23.262;2024-01-11T08:04:34;37.27;;;18.73;;
12076;SDS011;12420;42.676;23.262;2024-01-11T08:07:03;30.13;;;17.40;;
12076;SDS011;12420;42.676;23.262;2024-01-11T08:09:32;32.70;;;17.97;;
12076;SDS011;12420;42.676;23.262;2024-01-11T08:11:58;31.23;;;18.37;;
12076;SDS011;12420;42.676;23.262;2024-01-11T08:14:25;33.97;;;19.30;;
12076;SDS011;12420;42.676;23.262;2024-01-11T08:16:52;35.43;;;21.07;;
12076;SDS011;12420;42.676;23.262;2024-01-11T08:19:19;42.17;;;23.40;;
12076;SDS011;12420;42.676;23.262;2024-01-11T08:21:45;36.70;;;21.00;;
12076;SDS011;12420;42.676;23.262;2024-01-11T08:24:12;41.37;;;20.97;;
12076;SDS011;12420;42.676;23.262;2024-01-11T08:26:40;37.47;;;20.87;;
12076;SDS011;12420;42.676;23.262;2024-01-11T08:29:07;35.03;;;21.33;;
12076;SDS011;12420;42.676;23.262;2024-01-11T08:31:34;45.83;;;23.33;;
12076;SDS011;12420;42.676;23.262;2024-01-11T08:34:01;35.47;;;21.50;;
12076;SDS011;12420;42.676;23.262;2024-01-11T08:36:30;40.17;;;22.67;;
12076;SDS011;12420;42.676;23.262;2024-01-11T08:38:58;40.00;;;22.87;;
12076;SDS011;12420;42.676;23.262;2024-01-11T08:41:24;43.17;;;23.30;;
12076;SDS011;12420;42.676;23.262;2024-01-11T08:43:52;47.53;;;24.03;;
12076;SDS011;12420;42.676;23.262;2024-01-11T08:46:23;43.53;;;24.67;;
12076;SDS011;12420;42.676;23.262;2024-01-11T08:48:50;43.57;;;25.30;;
12076;SDS011;12420;42.676;23.262;2024-01-11T08:51:17;42.90;;;25.70;;
12076;SDS011;12420;42.676;23.262;2024-01-11T08:53:44;42.67;;;24.07;;
12076;SDS011;12420;42.676;23.262;2024-01-11T08:56:11;41.37;;;24.60;;
12076;SDS011;12420;42.676;23.262;2024-01-11T08:58:39;38.27;;;23.93;;
12076;SDS011;12420;42.676;23.262;2024-01-11T09:01:07;38.00;;;22.90;;
12076;SDS011;12420;42.676;23.262;2024-01-11T09:03:34;41.47;;;24.13;;
12076;SDS011;12420;42.676;23.262;2024-01-11T09:06:02;40.87;;;23.67;;
12076;SDS011;12420;42.676;23.262;2024-01-11T09:08:29;39.10;;;23.20;;
12076;SDS011;12420;42.676;23.262;2024-01-11T09:10:56;39.10;;;22.57;;
12076;SDS011;12420;42.676;23.262;2024-01-11T09:13:23;45.70;;;22.30;;
12076;SDS011;12420;42.676;23.262;2024-01-11T09:15:51;42.50;;;22.03;;
12076;SDS011;12420;42.676;23.262;2024-01-11T09:18:19;40.27;;;23.27;;
12076;SDS011;12420;42.676;23.262;2024-01-11T09:20:46;34.77;;;19.30;;
12076;SDS011;12420;42.676;23.262;2024-01-11T09:23:14;33.57;;;19.60;;
12076;SDS011;12420;42.676;23.262;2024-01-11T09:25:40;30.07;;;19.30;;
12076;SDS011;12420;42.676;23.262;2024-01-11T09:28:07;35.30;;;20.50;;
12076;SDS011;12420;42.676;23.262;2024-01-11T09:30:34;32.90;;;20.60;;
12076;SDS011;12420;42.676;23.262;2024-01-11T09:33:01;37.70;;;21.43;;
12076;SDS011;12420;42.676;23.262;2024-01-11T09:35:29;38.07;;;22.40;;
12076;SDS011;12420;42.676;23.262;2024-01-11T09:37:55;39.87;;;23.60;;
12076;SDS011;12420;42.676;23.262;2024-01-11T09:40:22;42.60;;;23.30;;
12076;SDS011;12420;42.676;23.262;2024-01-11T09:42:49;40.90;;;24.03;;
12076;SDS011;12420;42.676;23.262;2024-01-11T09:45:16;38.80;;;23.27;;
12076;SDS011;12420;42.676;23.262;2024-01-11T09:47:43;39.77;;;25.07;;
12076;SDS011;12420;42.676;23.262;2024-01-11T09:50:12;41.50;;;24.87;;
12076;SDS011;12420;42.676;23.262;2024-01-11T09:52:44;40.93;;;24.83;;
12076;SDS011;12420;42.676;23.262;2024-01-11T09:55:12;42.83;;;25.93;;
12076;SDS011;12420;42.676;23.262;2024-01-11T09:57:41;43.17;;;25.80;;
12076;SDS011;12420;42.676;23.262;2024-01-11T10:00:11;41.90;;;25.77;;
12076;SDS011;12420;42.676;23.262;2024-01-11T10:02:40;43.00;;;26.37;;
12076;SDS011;12420;42.676;23.262;2024-01-11T10:05:06;45.77;;;26.77;;
12076;SDS011;12420;42.676;23.262;2024-01-11T10:07:33;44.00;;;27.43;;
12076;SDS011;12420;42.676;23.262;2024-01-11T10:10:02;45.90;;;27.60;;
12076;SDS011;12420;42.676;23.262;2024-01-11T10:12:28;45.80;;;27.23;;
12076;SDS011;12420;42.676;23.262;2024-01-11T10:14:55;45.07;;;27.20;;
12076;SDS011;12420;42.676;23.262;2024-01-11T10:17:32;36.87;;;23.60;;
12076;SDS011;12420;42.676;23.262;2024-01-11T10:19:59;43.57;;;24.27;;
12076;SDS011;12420;42.676;23.262;2024-01-11T10:22:29;35.70;;;22.13;;
12076;SDS011;12420;42.676;23.262;2024-01-11T10:25:09;38.40;;;22.93;;
12076;SDS011;12420;42.676;23.262;2024-01-11T10:27:37;37.80;;;21.67;;
12076;SDS011;12420;42.676;23.262;2024-01-11T10:30:04;33.40;;;20.43;;
12076;SDS011;12420;42.676;23.262;2024-01-11T10:32:33;36.03;;;20.37;;
12076;SDS011;12420;42.676;23.262;2024-01-11T10:35:00;44.57;;;22.20;;
12076;SDS011;12420;42.676;23.262;2024-01-11T10:37:30;43.90;;;22.43;;
12076;SDS011;12420;42.676;23.262;2024-01-11T10:39:57;40.13;;;21.53;;
12076;SDS011;12420;42.676;23.262;2024-01-11T10:42:27;27.93;;;17.83;;
12076;SDS011;12420;42.676;23.262;2024-01-11T10:44:56;27.40;;;17.50;;
12076;SDS011;12420;42.676;23.262;2024-01-11T10:47:29;33.57;;;18.60;;
12076;SDS011;12420;42.676;23.262;2024-01-11T10:49:57;33.40;;;19.77;;
12076;SDS011;12420;42.676;23.262;2024-01-11T10:52:26;48.23;;;22.97;;
12076;SDS011;12420;42.676;23.262;2024-01-11T10:54:55;29.30;;;17.10;;
12076;SDS011;12420;42.676;23.262;2024-01-11T10:57:24;30.50;;;16.80;;
12076;SDS011;12420;42.676;23.262;2024-01-11T10:59:53;38.53;;;19.50;;
12076;SDS011;12420;42.676;23.262;2024-01-11T11:02:20;32.57;;;17.40;;
12076;SDS011;12420;42.676;23.262;2024-01-11T11:04:48;33.60;;;18.93;;
12076;SDS011;12420;42.676;23.262;2024-01-11T11:07:19;45.03;;;21.20;;
12076;SDS011;12420;42.676;23.262;2024-01-11T11:09:46;31.87;;;17.50;;
12076;SDS011;12420;42.676;23.262;2024-01-11T11:12:17;31.40;;;16.37;;
12076;SDS011;12420;42.676;23.262;2024-01-11T11:14:45;31.50;;;17.50;;
12076;SDS011;12420;42.676;23.262;2024-01-11T11:17:15;25.10;;;14.67;;
12076;SDS011;12420;42.676;23.262;2024-01-11T11:19:42;24.87;;;14.07;;
12076;SDS011;12420;42.676;23.262;2024-01-11T11:22:09;25.83;;;13.87;;
12076;SDS011;12420;42.676;23.262;2024-01-11T11:24:40;25.57;;;14.63;;
12076;SDS011;12420;42.676;23.262;2024-01-11T11:27:07;26.33;;;15.07;;
12076;SDS011;12420;42.676;23.262;2024-01-11T11:29:33;30.43;;;15.77;;
12076;SDS011;12420;42.676;23.262;2024-01-11T11:32:00;21.87;;;14.13;;
12076;SDS011;12420;42.676;23.262;2024-01-11T11:34:43;36.93;;;19.90;;
12076;SDS011;12420;42.676;23.262;2024-01-11T11:37:10;30.13;;;16.27;;
12076;SDS011;12420;42.676;23.262;2024-01-11T11:39:37;26.43;;;15.37;;
12076;SDS011;12420;42.676;23.262;2024-01-11T11:42:04;23.60;;;14.03;;
12076;SDS011;12420;42.676;23.262;2024-01-11T11:44:32;20.67;;;13.70;;
12076;SDS011;12420;42.676;23.262;2024-01-11T11:52:37;18.67;;;12.50;;
12076;SDS011;12420;42.676;23.262;2024-01-11T11:55:06;18.83;;;10.97;;
12076;SDS011;12420;42.676;23.262;2024-01-11T11:57:34;17.93;;;11.77;;
12076;SDS011;12420;42.676;23.262;2024-01-11T12:00:01;20.60;;;11.20;;
12076;SDS011;12420;42.676;23.262;2024-01-11T12:02:31;15.70;;;10.27;;
12076;SDS011;12420;42.676;23.262;2024-01-11T12:05:01;16.67;;;9.53;;
12076;SDS011;12420;42.676;23.262;2024-01-11T12:07:30;16.33;;;9.83;;
12076;SDS011;12420;42.676;23.262;2024-01-11T12:09:58;12.77;;;8.97;;
12076;SDS011;12420;42.676;23.262;2024-01-11T12:12:25;12.57;;;8.03;;
12076;SDS011;12420;42.676;23.262;2024-01-11T12:14:53;14.10;;;8.33;;
12076;SDS011;12420;42.676;23.262;2024-01-11T12:17:19;14.57;;;8.20;;
12076;SDS011;12420;42.676;23.262;2024-01-11T12:19:46;12.13;;;7.83;;
12076;SDS011;12420;42.676;23.262;2024-01-11T12:22:13;9.57;;;5.90;;
12076;SDS011;12420;42.676;23.262;2024-01-11T12:24:41;8.83;;;6.03;;
12076;SDS011;12420;42.676;23.262;2024-01-11T12:27:08;7.03;;;5.40;;
12076;SDS011;12420;42.676;23.262;2024-01-11T12:29:35;5.57;;;3.90;;
12076;SDS011;12420;42.676;23.262;2024-01-11T12:32:03;5.30;;;3.80;;
12076;SDS011;12420;42.676;23.262;2024-01-11T12:34:30;5.90;;;4.33;;
12076;SDS011;12420;42.676;23.262;2024-01-11T12:36:57;3.77;;;3.37;;
12076;SDS011;12420;42.676;23.262;2024-01-11T12:39:26;5.37;;;3.53;;
12076;SDS011;12420;42.676;23.262;2024-01-11T12:41:55;3.67;;;3.37;;
12076;SDS011;12420;42.676;23.262;2024-01-11T12:44:23;4.47;;;3.60;;
12076;SDS011;12420;42.676;23.262;2024-01-11T12:46:50;3.60;;;3.30;;
12076;SDS011;12420;42.676;23.262;2024-01-11T12:49:17;5.30;;;3.80;;
12076;SDS011;12420;42.676;23.262;2024-01-11T12:51:45;4.23;;;3.80;;
12076;SDS011;12420;42.676;23.262;2024-01-11T12:54:12;6.93;;;4.27;;
12076;SDS011;12420;42.676;23.262;2024-01-11T12:56:42;4.80;;;4.00;;
12076;SDS011;12420;42.676;23.262;2024-01-11T12:59:11;4.23;;;3.50;;
12076;SDS011;12420;42.676;23.262;2024-01-11T13:01:41;5.23;;;4.10;;
12076;SDS011;12420;42.676;23.262;2024-01-11T13:04:08;4.07;;;3.30;;
12076;SDS011;12420;42.676;23.262;2024-01-11T13:06:35;4.80;;;3.33;;
12076;SDS011;12420;42.676;23.262;2024-01-11T13:09:02;5.27;;;3.10;;
12076;SDS011;12420;42.676;23.262;2024-01-11T13:11:29;3.80;;;3.37;;
12076;SDS011;12420;42.676;23.262;2024-01-11T13:13:56;4.37;;;3.27;;
12076;SDS011;12420;42.676;23.262;2024-01-11T13:16:27;4.77;;;3.90;;
12076;SDS011;12420;42.676;23.262;2024-01-11T13:18:54;7.33;;;4.43;;
12076;SDS011;12420;42.676;23.262;2024-01-11T13:21:21;4.90;;;4.13;;
12076;SDS011;12420;42.676;23.262;2024-01-11T13:23:48;6.17;;;4.10;;
12076;SDS011;12420;42.676;23.262;2024-01-11T13:26:15;12.93;;;7.33;;
12076;SDS011;12420;42.676;23.262;2024-01-11T13:28:42;5.47;;;4.47;;
12076;SDS011;12420;42.676;23.262;2024-01-11T13:31:08;5.13;;;4.53;;
12076;SDS011;12420;42.676;23.262;2024-01-11T13:33:38;4.50;;;4.10;;
12076;SDS011;12420;42.676;23.262;2024-01-11T13:36:05;4.23;;;3.80;;
12076;SDS011;12420;42.676;23.262;2024-01-11T13:38:33;4.07;;;3.50;;
12076;SDS011;12420;42.676;23.262;2024-01-11T13:41:01;4.93;;;4.27;;
12076;SDS011;12420;42.676;23.262;2024-01-11T13:43:27;5.53;;;4.10;;
12076;SDS011;12420;42.676;23.262;2024-01-11T13:45:54;5.50;;;4.10;;
12076;SDS011;12420;42.676;23.262;2024-01-11T13:48:21;14.47;;;7.40;;
12076;SDS011;12420;42.676;23.262;2024-01-11T13:50:49;10.00;;;5.70;;
12076;SDS011;12420;42.676;23.262;2024-01-11T13:53:16;4.17;;;3.77;;
12076;SDS011;12420;42.676;23.262;2024-01-11T13:55:43;3.83;;;3.40;;
12076;SDS011;12420;42.676;23.262;2024-01-11T13:58:09;3.87;;;3.37;;
12076;SDS011;12420;42.676;23.262;2024-01-11T14:00:37;4.77;;;3.70;;
12076;SDS011;12420;42.676;23.262;2024-01-11T14:03:05;6.67;;;4.30;;
12076;SDS011;12420;42.676;23.262;2024-01-11T14:05:31;5.97;;;3.93;;
12076;SDS011;12420;42.676;23.262;2024-01-11T14:07:59;4.87;;;4.07;;
12076;SDS011;12420;42.676;23.262;2024-01-11T14:10:30;3.97;;;3.57;;
12076;SDS011;12420;42.676;23.262;2024-01-11T14:12:57;5.73;;;3.97;;
12076;SDS011;12420;42.676;23.262;2024-01-11T14:15:24;5.03;;;4.23;;
12076;SDS011;12420;42.676;23.262;2024-01-11T14:17:51;8.27;;;5.93;;
12076;SDS011;12420;42.676;23.262;2024-01-11T14:20:18;6.33;;;5.07;;